Terminal Aerodrome Forecast
Issued by NWS Tiyan, Guam

Home | Current Version | Previous Version | Text Only | Print | Product List | Glossary On
Versions: 1 2 3 4 5 6 7 8 9 10 11 12 13 14 15 16 17 18 19 20 21 22 23 24
000
FTPQ31 PGUM 231720
TAFGUM
TAF
PGUM 231720Z 2318/2424 08008KT P6SM VCSH FEW015 SCT040 BKN120
     FM232300 09012G20KT P6SM VCSH SCT015 BKN040
     FM240800 11011KT P6SM -SHRA SCT015 OVC035=

USA.gov is the U.S. government's official web portal to all federal, state and local government web resources and services.